sensor_id;sensor_type;location;lat;lon;timestamp;temperature;humidity
34279;DHT22;20538;51.528;9.942;2022-10-15T00:01:10;13.90;99.90
34279;DHT22;20538;51.528;9.942;2022-10-15T00:03:41;13.90;99.90
34279;DHT22;20538;51.528;9.942;2022-10-15T00:06:10;13.90;99.90
34279;DHT22;20538;51.528;9.942;2022-10-15T00:08:36;13.90;99.90
34279;DHT22;20538;51.528;9.942;2022-10-15T00:11:11;13.90;99.90
34279;DHT22;20538;51.528;9.942;2022-10-15T00:13:37;13.90;99.90
34279;DHT22;20538;51.528;9.942;2022-10-15T00:16:05;13.90;99.90
34279;DHT22;20538;51.528;9.942;2022-10-15T00:18:31;13.90;99.90
34279;DHT22;20538;51.528;9.942;2022-10-15T00:20:57;13.90;99.90
34279;DHT22;20538;51.528;9.942;2022-10-15T00:23:22;13.90;99.90
34279;DHT22;20538;51.528;9.942;2022-10-15T00:25:48;13.90;99.90
34279;DHT22;20538;51.528;9.942;2022-10-15T00:28:14;13.90;99.90
34279;DHT22;20538;51.528;9.942;2022-10-15T00:30:39;13.90;99.90
34279;DHT22;20538;51.528;9.942;2022-10-15T00:33:05;13.90;99.90
34279;DHT22;20538;51.528;9.942;2022-10-15T00:35:31;13.90;99.90
34279;DHT22;20538;51.528;9.942;2022-10-15T00:37:56;13.90;99.90
34279;DHT22;20538;51.528;9.942;2022-10-15T00:40:22;13.90;99.90
34279;DHT22;20538;51.528;9.942;2022-10-15T00:42:48;13.90;99.90
34279;DHT22;20538;51.528;9.942;2022-10-15T00:45:14;13.90;99.90
34279;DHT22;20538;51.528;9.942;2022-10-15T00:47:45;13.90;99.90
34279;DHT22;20538;51.528;9.942;2022-10-15T00:50:15;13.90;99.90
34279;DHT22;20538;51.528;9.942;2022-10-15T00:53:01;13.90;99.90
34279;DHT22;20538;51.528;9.942;2022-10-15T00:55:33;13.90;99.90
34279;DHT22;20538;51.528;9.942;2022-10-15T00:58:02;13.90;99.90
34279;DHT22;20538;51.528;9.942;2022-10-15T01:00:30;13.90;99.90
34279;DHT22;20538;51.528;9.942;2022-10-15T01:02:56;13.90;99.90
34279;DHT22;20538;51.528;9.942;2022-10-15T01:05:22;13.90;99.90
34279;DHT22;20538;51.528;9.942;2022-10-15T01:07:48;13.90;99.90
34279;DHT22;20538;51.528;9.942;2022-10-15T01:10:15;13.90;99.90
34279;DHT22;20538;51.528;9.942;2022-10-15T01:13:11;13.80;99.90
34279;DHT22;20538;51.528;9.942;2022-10-15T01:16:53;13.90;99.90
34279;DHT22;20538;51.528;9.942;2022-10-15T01:19:05;13.80;99.90
34279;DHT22;20538;51.528;9.942;2022-10-15T01:21:37;13.80;99.90
34279;DHT22;20538;51.528;9.942;2022-10-15T01:24:34;13.80;99.90
34279;DHT22;20538;51.528;9.942;2022-10-15T01:30:37;13.80;99.90
34279;DHT22;20538;51.528;9.942;2022-10-15T01:33:18;13.80;99.90
34279;DHT22;20538;51.528;9.942;2022-10-15T01:35:48;13.80;99.90
34279;DHT22;20538;51.528;9.942;2022-10-15T01:41:15;13.80;99.90
34279;DHT22;20538;51.528;9.942;2022-10-15T01:46:37;13.80;99.90
34279;DHT22;20538;51.528;9.942;2022-10-15T01:49:04;13.80;99.90
34279;DHT22;20538;51.528;9.942;2022-10-15T01:51:34;13.80;99.90
34279;DHT22;20538;51.528;9.942;2022-10-15T01:54:01;13.80;99.90
34279;DHT22;20538;51.528;9.942;2022-10-15T01:56:31;13.80;99.90
34279;DHT22;20538;51.528;9.942;2022-10-15T01:58:58;13.80;99.90
34279;DHT22;20538;51.528;9.942;2022-10-15T02:01:24;13.80;99.90
34279;DHT22;20538;51.528;9.942;2022-10-15T02:03:51;13.70;99.90
34279;DHT22;20538;51.528;9.942;2022-10-15T02:06:24;13.70;99.90
34279;DHT22;20538;51.528;9.942;2022-10-15T02:09:02;13.70;99.90
34279;DHT22;20538;51.528;9.942;2022-10-15T02:11:39;13.70;99.90
34279;DHT22;20538;51.528;9.942;2022-10-15T02:14:14;13.70;99.90
34279;DHT22;20538;51.528;9.942;2022-10-15T02:16:53;13.70;99.90
34279;DHT22;20538;51.528;9.942;2022-10-15T02:19:29;13.70;99.90
34279;DHT22;20538;51.528;9.942;2022-10-15T02:22:19;13.70;99.90
34279;DHT22;20538;51.528;9.942;2022-10-15T02:25:13;13.70;99.90
34279;DHT22;20538;51.528;9.942;2022-10-15T02:27:41;13.70;99.90
34279;DHT22;20538;51.528;9.942;2022-10-15T02:30:09;13.70;99.90
34279;DHT22;20538;51.528;9.942;2022-10-15T02:32:37;13.70;99.90
34279;DHT22;20538;51.528;9.942;2022-10-15T02:35:06;13.70;99.90
34279;DHT22;20538;51.528;9.942;2022-10-15T02:37:34;13.70;99.90
34279;DHT22;20538;51.528;9.942;2022-10-15T02:40:00;13.70;99.90
34279;DHT22;20538;51.528;9.942;2022-10-15T02:42:26;13.70;99.90
34279;DHT22;20538;51.528;9.942;2022-10-15T02:44:52;13.70;99.90
34279;DHT22;20538;51.528;9.942;2022-10-15T02:47:18;13.70;99.90
34279;DHT22;20538;51.528;9.942;2022-10-15T02:49:43;13.70;99.90
34279;DHT22;20538;51.528;9.942;2022-10-15T02:52:09;13.70;99.90
34279;DHT22;20538;51.528;9.942;2022-10-15T02:54:35;13.70;99.90
34279;DHT22;20538;51.528;9.942;2022-10-15T02:57:00;13.70;99.90
34279;DHT22;20538;51.528;9.942;2022-10-15T02:59:26;13.70;99.90
34279;DHT22;20538;51.528;9.942;2022-10-15T03:01:51;13.60;99.90
34279;DHT22;20538;51.528;9.942;2022-10-15T03:04:17;13.60;99.90
34279;DHT22;20538;51.528;9.942;2022-10-15T03:06:43;13.50;99.90
34279;DHT22;20538;51.528;9.942;2022-10-15T03:09:08;13.50;99.90
34279;DHT22;20538;51.528;9.942;2022-10-15T03:11:34;13.40;99.90
34279;DHT22;20538;51.528;9.942;2022-10-15T03:14:00;13.40;99.90
34279;DHT22;20538;51.528;9.942;2022-10-15T03:16:25;13.40;99.90
34279;DHT22;20538;51.528;9.942;2022-10-15T03:18:51;13.40;99.90
34279;DHT22;20538;51.528;9.942;2022-10-15T03:21:16;13.30;99.90
34279;DHT22;20538;51.528;9.942;2022-10-15T03:23:42;13.30;99.90
34279;DHT22;20538;51.528;9.942;2022-10-15T03:26:08;13.30;99.90
34279;DHT22;20538;51.528;9.942;2022-10-15T03:28:33;13.30;99.90
34279;DHT22;20538;51.528;9.942;2022-10-15T03:30:59;13.30;99.90
34279;DHT22;20538;51.528;9.942;2022-10-15T03:33:24;13.20;99.90
34279;DHT22;20538;51.528;9.942;2022-10-15T03:35:50;13.20;99.90
34279;DHT22;20538;51.528;9.942;2022-10-15T03:38:17;13.20;99.90
34279;DHT22;20538;51.528;9.942;2022-10-15T03:40:44;13.20;99.90
34279;DHT22;20538;51.528;9.942;2022-10-15T03:43:09;13.20;99.90
34279;DHT22;20538;51.528;9.942;2022-10-15T03:45:35;13.20;99.90
34279;DHT22;20538;51.528;9.942;2022-10-15T03:48:00;13.20;99.90
34279;DHT22;20538;51.528;9.942;2022-10-15T03:50:26;13.20;99.90
34279;DHT22;20538;51.528;9.942;2022-10-15T03:52:51;13.20;99.90
34279;DHT22;20538;51.528;9.942;2022-10-15T03:55:17;13.20;99.90
34279;DHT22;20538;51.528;9.942;2022-10-15T03:57:43;13.20;99.90
34279;DHT22;20538;51.528;9.942;2022-10-15T04:00:10;13.20;99.90
34279;DHT22;20538;51.528;9.942;2022-10-15T04:02:36;13.20;99.90
34279;DHT22;20538;51.528;9.942;2022-10-15T04:05:02;13.30;99.90
34279;DHT22;20538;51.528;9.942;2022-10-15T04:07:28;13.30;99.90
34279;DHT22;20538;51.528;9.942;2022-10-15T04:09:53;13.30;99.90
34279;DHT22;20538;51.528;9.942;2022-10-15T04:12:19;13.20;99.90
34279;DHT22;20538;51.528;9.942;2022-10-15T04:14:45;13.30;99.90
34279;DHT22;20538;51.528;9.942;2022-10-15T04:17:10;13.30;99.90
34279;DHT22;20538;51.528;9.942;2022-10-15T04:19:36;13.20;99.90
34279;DHT22;20538;51.528;9.942;2022-10-15T04:22:02;13.20;99.90
34279;DHT22;20538;51.528;9.942;2022-10-15T04:24:27;13.20;99.90
34279;DHT22;20538;51.528;9.942;2022-10-15T04:26:53;13.30;99.90
34279;DHT22;20538;51.528;9.942;2022-10-15T04:29:19;13.30;99.90
34279;DHT22;20538;51.528;9.942;2022-10-15T04:31:44;13.30;99.90
34279;DHT22;20538;51.528;9.942;2022-10-15T04:34:10;13.30;99.90
34279;DHT22;20538;51.528;9.942;2022-10-15T04:36:36;13.30;99.90
34279;DHT22;20538;51.528;9.942;2022-10-15T04:39:03;13.30;99.90
34279;DHT22;20538;51.528;9.942;2022-10-15T04:41:29;13.30;99.90
34279;DHT22;20538;51.528;9.942;2022-10-15T04:43:56;13.30;99.90
34279;DHT22;20538;51.528;9.942;2022-10-15T04:46:22;13.30;99.90
34279;DHT22;20538;51.528;9.942;2022-10-15T04:48:47;13.30;99.90
34279;DHT22;20538;51.528;9.942;2022-10-15T04:51:15;13.30;99.90
34279;DHT22;20538;51.528;9.942;2022-10-15T04:53:42;13.30;99.90
34279;DHT22;20538;51.528;9.942;2022-10-15T04:56:10;13.30;99.90
34279;DHT22;20538;51.528;9.942;2022-10-15T04:58:38;13.40;99.90
34279;DHT22;20538;51.528;9.942;2022-10-15T05:01:08;13.40;99.90
34279;DHT22;20538;51.528;9.942;2022-10-15T05:03:37;13.30;99.90
34279;DHT22;20538;51.528;9.942;2022-10-15T05:06:05;13.40;99.90
34279;DHT22;20538;51.528;9.942;2022-10-15T05:08:32;13.40;99.90
34279;DHT22;20538;51.528;9.942;2022-10-15T05:11:02;13.40;99.90
34279;DHT22;20538;51.528;9.942;2022-10-15T05:13:28;13.40;99.90
34279;DHT22;20538;51.528;9.942;2022-10-15T05:15:54;13.40;99.90
34279;DHT22;20538;51.528;9.942;2022-10-15T05:18:20;13.30;99.90
34279;DHT22;20538;51.528;9.942;2022-10-15T05:20:46;13.30;99.90
34279;DHT22;20538;51.528;9.942;2022-10-15T05:23:11;13.30;99.90
34279;DHT22;20538;51.528;9.942;2022-10-15T05:25:37;13.30;99.90
34279;DHT22;20538;51.528;9.942;2022-10-15T05:28:03;13.30;99.90
34279;DHT22;20538;51.528;9.942;2022-10-15T05:30:28;13.30;99.90
34279;DHT22;20538;51.528;9.942;2022-10-15T05:32:54;13.30;99.90
34279;DHT22;20538;51.528;9.942;2022-10-15T05:35:20;13.30;99.90
34279;DHT22;20538;51.528;9.942;2022-10-15T05:37:47;13.30;99.90
34279;DHT22;20538;51.528;9.942;2022-10-15T05:40:13;13.30;99.90
34279;DHT22;20538;51.528;9.942;2022-10-15T05:42:38;13.30;99.90
34279;DHT22;20538;51.528;9.942;2022-10-15T05:45:04;13.30;99.90
34279;DHT22;20538;51.528;9.942;2022-10-15T05:47:30;13.40;99.90
34279;DHT22;20538;51.528;9.942;2022-10-15T05:49:55;13.30;99.90
34279;DHT22;20538;51.528;9.942;2022-10-15T05:52:21;13.30;99.90
34279;DHT22;20538;51.528;9.942;2022-10-15T05:54:47;13.40;99.90
34279;DHT22;20538;51.528;9.942;2022-10-15T05:57:12;13.40;99.90
34279;DHT22;20538;51.528;9.942;2022-10-15T05:59:38;13.40;99.90
34279;DHT22;20538;51.528;9.942;2022-10-15T06:02:04;13.30;99.90
34279;DHT22;20538;51.528;9.942;2022-10-15T06:04:29;13.40;99.90
34279;DHT22;20538;51.528;9.942;2022-10-15T06:06:57;13.40;99.90
34279;DHT22;20538;51.528;9.942;2022-10-15T06:09:22;13.40;99.90
34279;DHT22;20538;51.528;9.942;2022-10-15T06:11:48;13.40;99.90
34279;DHT22;20538;51.528;9.942;2022-10-15T06:14:14;13.40;99.90
34279;DHT22;20538;51.528;9.942;2022-10-15T06:16:39;13.40;99.90
34279;DHT22;20538;51.528;9.942;2022-10-15T06:19:05;13.40;99.90
34279;DHT22;20538;51.528;9.942;2022-10-15T06:21:31;13.40;99.90
34279;DHT22;20538;51.528;9.942;2022-10-15T06:23:56;13.40;99.90
34279;DHT22;20538;51.528;9.942;2022-10-15T06:26:22;13.50;99.90
34279;DHT22;20538;51.528;9.942;2022-10-15T06:28:48;13.50;99.90
34279;DHT22;20538;51.528;9.942;2022-10-15T06:31:13;13.50;99.90
34279;DHT22;20538;51.528;9.942;2022-10-15T06:33:39;13.50;99.90
34279;DHT22;20538;51.528;9.942;2022-10-15T06:36:07;13.50;99.90
34279;DHT22;20538;51.528;9.942;2022-10-15T06:38:33;13.60;99.90
34279;DHT22;20538;51.528;9.942;2022-10-15T06:40:59;13.60;99.90
34279;DHT22;20538;51.528;9.942;2022-10-15T06:43:25;13.70;99.90
34279;DHT22;20538;51.528;9.942;2022-10-15T06:45:51;13.70;99.90
34279;DHT22;20538;51.528;9.942;2022-10-15T06:48:17;13.70;99.90
34279;DHT22;20538;51.528;9.942;2022-10-15T06:50:43;13.70;99.90
34279;DHT22;20538;51.528;9.942;2022-10-15T06:53:09;13.70;99.90
34279;DHT22;20538;51.528;9.942;2022-10-15T06:55:35;13.80;99.90
34279;DHT22;20538;51.528;9.942;2022-10-15T06:58:00;13.80;99.90
34279;DHT22;20538;51.528;9.942;2022-10-15T07:00:26;13.80;99.90
34279;DHT22;20538;51.528;9.942;2022-10-15T07:02:52;13.90;99.90
34279;DHT22;20538;51.528;9.942;2022-10-15T07:05:18;13.90;99.90
34279;DHT22;20538;51.528;9.942;2022-10-15T07:07:52;14.00;99.90
34279;DHT22;20538;51.528;9.942;2022-10-15T07:10:17;14.00;99.90
34279;DHT22;20538;51.528;9.942;2022-10-15T07:12:43;14.10;99.90
34279;DHT22;20538;51.528;9.942;2022-10-15T07:15:09;14.10;99.90
34279;DHT22;20538;51.528;9.942;2022-10-15T07:17:34;14.10;99.90
34279;DHT22;20538;51.528;9.942;2022-10-15T07:20:00;14.20;99.90
34279;DHT22;20538;51.528;9.942;2022-10-15T07:22:26;14.20;99.90
34279;DHT22;20538;51.528;9.942;2022-10-15T07:24:51;14.30;99.90
34279;DHT22;20538;51.528;9.942;2022-10-15T07:27:17;14.40;99.90
34279;DHT22;20538;51.528;9.942;2022-10-15T07:29:42;14.40;99.90
34279;DHT22;20538;51.528;9.942;2022-10-15T07:32:08;14.50;99.90
34279;DHT22;20538;51.528;9.942;2022-10-15T07:34:34;14.50;99.90
34279;DHT22;20538;51.528;9.942;2022-10-15T07:36:59;14.50;99.90
34279;DHT22;20538;51.528;9.942;2022-10-15T07:39:25;14.50;99.90
34279;DHT22;20538;51.528;9.942;2022-10-15T07:41:50;14.50;99.90
34279;DHT22;20538;51.528;9.942;2022-10-15T07:44:16;14.50;99.90
34279;DHT22;20538;51.528;9.942;2022-10-15T07:46:42;14.40;99.90
34279;DHT22;20538;51.528;9.942;2022-10-15T07:49:07;14.40;99.90
34279;DHT22;20538;51.528;9.942;2022-10-15T07:51:33;14.40;99.90
34279;DHT22;20538;51.528;9.942;2022-10-15T07:53:59;14.40;99.90
34279;DHT22;20538;51.528;9.942;2022-10-15T07:56:25;14.40;99.90
34279;DHT22;20538;51.528;9.942;2022-10-15T07:58:50;14.40;99.90
34279;DHT22;20538;51.528;9.942;2022-10-15T08:01:18;14.30;99.90
34279;DHT22;20538;51.528;9.942;2022-10-15T08:03:43;14.30;99.90
34279;DHT22;20538;51.528;9.942;2022-10-15T08:06:09;14.30;99.90
34279;DHT22;20538;51.528;9.942;2022-10-15T08:08:36;14.30;99.90
34279;DHT22;20538;51.528;9.942;2022-10-15T08:11:07;14.30;99.90
34279;DHT22;20538;51.528;9.942;2022-10-15T08:13:33;14.40;99.90
34279;DHT22;20538;51.528;9.942;2022-10-15T08:15:59;14.40;99.90
34279;DHT22;20538;51.528;9.942;2022-10-15T08:18:25;14.50;99.90
34279;DHT22;20538;51.528;9.942;2022-10-15T08:20:51;14.50;99.90
34279;DHT22;20538;51.528;9.942;2022-10-15T08:23:17;14.60;99.90
34279;DHT22;20538;51.528;9.942;2022-10-15T08:25:42;14.60;99.90
34279;DHT22;20538;51.528;9.942;2022-10-15T08:28:08;14.60;99.90
34279;DHT22;20538;51.528;9.942;2022-10-15T08:30:35;14.80;99.90
34279;DHT22;20538;51.528;9.942;2022-10-15T08:33:01;14.80;99.90
34279;DHT22;20538;51.528;9.942;2022-10-15T08:35:27;14.80;99.90
34279;DHT22;20538;51.528;9.942;2022-10-15T08:37:53;14.90;99.90
34279;DHT22;20538;51.528;9.942;2022-10-15T08:40:21;14.90;99.90
34279;DHT22;20538;51.528;9.942;2022-10-15T08:42:47;15.00;99.90
34279;DHT22;20538;51.528;9.942;2022-10-15T08:45:22;15.10;99.90
34279;DHT22;20538;51.528;9.942;2022-10-15T08:48:03;15.10;99.90
34279;DHT22;20538;51.528;9.942;2022-10-15T08:50:53;15.20;99.90
34279;DHT22;20538;51.528;9.942;2022-10-15T08:53:22;15.20;99.90
34279;DHT22;20538;51.528;9.942;2022-10-15T08:55:52;15.20;99.90
34279;DHT22;20538;51.528;9.942;2022-10-15T09:00:55;15.20;99.90
34279;DHT22;20538;51.528;9.942;2022-10-15T09:06:23;15.40;99.90
34279;DHT22;20538;51.528;9.942;2022-10-15T09:14:51;15.70;99.90
34279;DHT22;20538;51.528;9.942;2022-10-15T09:17:19;15.90;99.90
34279;DHT22;20538;51.528;9.942;2022-10-15T09:19:48;16.00;99.90
34279;DHT22;20538;51.528;9.942;2022-10-15T09:22:17;16.10;99.90
34279;DHT22;20538;51.528;9.942;2022-10-15T09:24:43;16.10;99.90
34279;DHT22;20538;51.528;9.942;2022-10-15T09:27:30;16.10;99.90
34279;DHT22;20538;51.528;9.942;2022-10-15T09:30:22;16.10;99.90
34279;DHT22;20538;51.528;9.942;2022-10-15T09:32:56;16.10;99.90
34279;DHT22;20538;51.528;9.942;2022-10-15T09:35:29;16.20;99.90
34279;DHT22;20538;51.528;9.942;2022-10-15T09:38:33;16.20;99.90
34279;DHT22;20538;51.528;9.942;2022-10-15T09:43:43;16.10;99.90
34279;DHT22;20538;51.528;9.942;2022-10-15T09:46:10;16.20;99.90
34279;DHT22;20538;51.528;9.942;2022-10-15T09:48:43;16.20;99.90
34279;DHT22;20538;51.528;9.942;2022-10-15T09:51:27;16.30;99.90
34279;DHT22;20538;51.528;9.942;2022-10-15T09:56:53;16.30;99.90
34279;DHT22;20538;51.528;9.942;2022-10-15T09:59:22;16.20;99.90
34279;DHT22;20538;51.528;9.942;2022-10-15T10:01:59;16.20;99.90
34279;DHT22;20538;51.528;9.942;2022-10-15T10:04:28;16.20;99.90
34279;DHT22;20538;51.528;9.942;2022-10-15T10:07:05;16.40;99.90
34279;DHT22;20538;51.528;9.942;2022-10-15T10:09:37;16.40;99.90
34279;DHT22;20538;51.528;9.942;2022-10-15T10:12:18;16.50;99.90
34279;DHT22;20538;51.528;9.942;2022-10-15T10:14:53;16.50;99.90
34279;DHT22;20538;51.528;9.942;2022-10-15T10:17:22;16.50;99.90
34279;DHT22;20538;51.528;9.942;2022-10-15T10:20:24;16.50;99.90
34279;DHT22;20538;51.528;9.942;2022-10-15T10:35:55;16.80;99.90
34279;DHT22;20538;51.528;9.942;2022-10-15T10:38:29;16.60;99.90
34279;DHT22;20538;51.528;9.942;2022-10-15T10:41:02;16.70;99.90
34279;DHT22;20538;51.528;9.942;2022-10-15T10:43:35;16.70;99.90
34279;DHT22;20538;51.528;9.942;2022-10-15T10:46:20;16.80;99.90
34279;DHT22;20538;51.528;9.942;2022-10-15T10:48:51;16.90;99.90
34279;DHT22;20538;51.528;9.942;2022-10-15T10:51:23;17.10;99.90
34279;DHT22;20538;51.528;9.942;2022-10-15T10:56:40;17.30;99.90
34279;DHT22;20538;51.528;9.942;2022-10-15T10:59:25;17.40;99.90
34279;DHT22;20538;51.528;9.942;2022-10-15T11:01:52;17.50;99.90
34279;DHT22;20538;51.528;9.942;2022-10-15T11:04:32;17.60;99.90
34279;DHT22;20538;51.528;9.942;2022-10-15T11:12:31;17.80;99.90
34279;DHT22;20538;51.528;9.942;2022-10-15T11:23:10;17.50;99.90
34279;DHT22;20538;51.528;9.942;2022-10-15T11:31:32;17.90;99.90
34279;DHT22;20538;51.528;9.942;2022-10-15T11:42:17;18.30;99.90
34279;DHT22;20538;51.528;9.942;2022-10-15T11:44:52;18.40;99.90
34279;DHT22;20538;51.528;9.942;2022-10-15T11:47:41;18.10;99.90
34279;DHT22;20538;51.528;9.942;2022-10-15T11:53:19;18.40;99.90
34279;DHT22;20538;51.528;9.942;2022-10-15T11:55:51;18.20;99.90
34279;DHT22;20538;51.528;9.942;2022-10-15T12:04:23;17.90;99.90
34279;DHT22;20538;51.528;9.942;2022-10-15T12:06:51;17.60;99.90
34279;DHT22;20538;51.528;9.942;2022-10-15T12:09:30;17.60;99.90
34279;DHT22;20538;51.528;9.942;2022-10-15T12:12:00;17.40;99.90
34279;DHT22;20538;51.528;9.942;2022-10-15T12:15:05;17.20;99.90
34279;DHT22;20538;51.528;9.942;2022-10-15T12:20:11;17.20;99.90
34279;DHT22;20538;51.528;9.942;2022-10-15T12:22:39;17.20;99.90
34279;DHT22;20538;51.528;9.942;2022-10-15T12:25:46;17.40;99.90
34279;DHT22;20538;51.528;9.942;2022-10-15T12:28:28;17.50;99.90
34279;DHT22;20538;51.528;9.942;2022-10-15T12:31:03;17.50;99.90
34279;DHT22;20538;51.528;9.942;2022-10-15T12:33:36;17.50;99.90
34279;DHT22;20538;51.528;9.942;2022-10-15T12:36:40;17.40;99.90
34279;DHT22;20538;51.528;9.942;2022-10-15T12:39:23;17.40;99.90
34279;DHT22;20538;51.528;9.942;2022-10-15T12:41:49;17.50;99.90
34279;DHT22;20538;51.528;9.942;2022-10-15T12:44:22;17.70;99.90
34279;DHT22;20538;51.528;9.942;2022-10-15T12:46:49;17.70;99.90
34279;DHT22;20538;51.528;9.942;2022-10-15T12:51:56;17.70;99.90
34279;DHT22;20538;51.528;9.942;2022-10-15T12:54:40;17.60;99.90
34279;DHT22;20538;51.528;9.942;2022-10-15T12:59:58;17.50;99.90
34279;DHT22;20538;51.528;9.942;2022-10-15T13:02:53;17.50;99.90
34279;DHT22;20538;51.528;9.942;2022-10-15T13:05:33;17.50;99.90
34279;DHT22;20538;51.528;9.942;2022-10-15T13:08:01;17.50;99.90
34279;DHT22;20538;51.528;9.942;2022-10-15T13:10:32;17.40;99.90
34279;DHT22;20538;51.528;9.942;2022-10-15T13:13:02;17.30;99.90
34279;DHT22;20538;51.528;9.942;2022-10-15T13:15:30;17.30;99.90
34279;DHT22;20538;51.528;9.942;2022-10-15T13:17:58;17.30;99.90
34279;DHT22;20538;51.528;9.942;2022-10-15T13:20:37;17.30;99.90
34279;DHT22;20538;51.528;9.942;2022-10-15T13:23:31;17.40;99.90
34279;DHT22;20538;51.528;9.942;2022-10-15T13:28:44;17.50;99.90
34279;DHT22;20538;51.528;9.942;2022-10-15T13:31:40;17.50;99.90
34279;DHT22;20538;51.528;9.942;2022-10-15T13:34:27;17.40;99.90
34279;DHT22;20538;51.528;9.942;2022-10-15T13:36:55;17.50;99.90
34279;DHT22;20538;51.528;9.942;2022-10-15T13:42:15;17.60;99.90
34279;DHT22;20538;51.528;9.942;2022-10-15T13:44:42;17.70;99.90
34279;DHT22;20538;51.528;9.942;2022-10-15T13:47:27;17.70;99.90
34279;DHT22;20538;51.528;9.942;2022-10-15T13:50:30;17.80;99.90
34279;DHT22;20538;51.528;9.942;2022-10-15T13:55:52;18.00;99.90
34279;DHT22;20538;51.528;9.942;2022-10-15T14:01:05;18.10;99.90
34279;DHT22;20538;51.528;9.942;2022-10-15T14:03:34;18.20;99.90
34279;DHT22;20538;51.528;9.942;2022-10-15T14:06:20;18.20;99.90
34279;DHT22;20538;51.528;9.942;2022-10-15T14:08:58;18.20;99.90
34279;DHT22;20538;51.528;9.942;2022-10-15T14:11:25;18.20;99.90
34279;DHT22;20538;51.528;9.942;2022-10-15T14:13:53;18.20;99.90
34279;DHT22;20538;51.528;9.942;2022-10-15T14:19:08;18.10;99.90
34279;DHT22;20538;51.528;9.942;2022-10-15T14:21:35;18.10;99.90
34279;DHT22;20538;51.528;9.942;2022-10-15T14:24:09;18.00;99.90
34279;DHT22;20538;51.528;9.942;2022-10-15T14:26:37;18.00;99.90
34279;DHT22;20538;51.528;9.942;2022-10-15T14:29:03;17.80;99.90
34279;DHT22;20538;51.528;9.942;2022-10-15T14:31:37;17.80;99.90
34279;DHT22;20538;51.528;9.942;2022-10-15T14:34:04;17.70;99.90
34279;DHT22;20538;51.528;9.942;2022-10-15T14:36:32;17.70;99.90
34279;DHT22;20538;51.528;9.942;2022-10-15T14:39:39;17.60;99.90
34279;DHT22;20538;51.528;9.942;2022-10-15T14:42:22;17.60;99.90
34279;DHT22;20538;51.528;9.942;2022-10-15T14:44:50;17.60;99.90
34279;DHT22;20538;51.528;9.942;2022-10-15T14:47:24;17.50;99.90
34279;DHT22;20538;51.528;9.942;2022-10-15T14:49:56;17.40;99.90
34279;DHT22;20538;51.528;9.942;2022-10-15T14:52:24;17.40;99.90
34279;DHT22;20538;51.528;9.942;2022-10-15T14:57:42;17.30;99.90
34279;DHT22;20538;51.528;9.942;2022-10-15T15:00:24;17.20;99.90
34279;DHT22;20538;51.528;9.942;2022-10-15T15:02:51;17.30;99.90
34279;DHT22;20538;51.528;9.942;2022-10-15T15:05:20;17.30;99.90
34279;DHT22;20538;51.528;9.942;2022-10-15T15:07:47;17.30;99.90
34279;DHT22;20538;51.528;9.942;2022-10-15T15:10:13;17.30;99.90
34279;DHT22;20538;51.528;9.942;2022-10-15T15:12:39;17.20;99.90
34279;DHT22;20538;51.528;9.942;2022-10-15T15:15:14;17.10;99.90
34279;DHT22;20538;51.528;9.942;2022-10-15T15:45:23;17.00;99.90
34279;DHT22;20538;51.528;9.942;2022-10-15T15:48:05;17.00;99.90
34279;DHT22;20538;51.528;9.942;2022-10-15T15:50:50;17.00;99.90
34279;DHT22;20538;51.528;9.942;2022-10-15T15:54:11;16.90;99.90
34279;DHT22;20538;51.528;9.942;2022-10-15T15:57:38;16.90;99.90
34279;DHT22;20538;51.528;9.942;2022-10-15T16:20:00;16.60;99.90
34279;DHT22;20538;51.528;9.942;2022-10-15T16:22:43;16.50;99.90
34279;DHT22;20538;51.528;9.942;2022-10-15T16:53:40;15.90;99.90
34279;DHT22;20538;51.528;9.942;2022-10-15T17:03:54;15.80;99.90
34279;DHT22;20538;51.528;9.942;2022-10-15T17:10:02;15.80;99.90
34279;DHT22;20538;51.528;9.942;2022-10-15T18:05:47;15.50;99.90
34279;DHT22;20538;51.528;9.942;2022-10-15T18:12:36;15.40;99.90
34279;DHT22;20538;51.528;9.942;2022-10-15T18:43:22;15.40;99.90
34279;DHT22;20538;51.528;9.942;2022-10-15T19:00:53;15.70;99.90
34279;DHT22;20538;51.528;9.942;2022-10-15T19:39:56;15.10;99.90
34279;DHT22;20538;51.528;9.942;2022-10-15T20:00:32;15.50;99.90
34279;DHT22;20538;51.528;9.942;2022-10-15T20:09:42;15.60;99.90
34279;DHT22;20538;51.528;9.942;2022-10-15T20:16:00;15.70;99.90
34279;DHT22;20538;51.528;9.942;2022-10-15T20:25:35;15.80;99.90
34279;DHT22;20538;51.528;9.942;2022-10-15T20:28:11;15.80;99.90
34279;DHT22;20538;51.528;9.942;2022-10-15T21:09:52;16.00;99.90
34279;DHT22;20538;51.528;9.942;2022-10-15T21:13:08;16.00;99.90
34279;DHT22;20538;51.528;9.942;2022-10-15T21:19:18;16.00;99.90
34279;DHT22;20538;51.528;9.942;2022-10-15T21:21:44;15.90;99.90
34279;DHT22;20538;51.528;9.942;2022-10-15T21:24:10;15.90;99.90
34279;DHT22;20538;51.528;9.942;2022-10-15T21:26:35;15.80;99.90
34279;DHT22;20538;51.528;9.942;2022-10-15T21:29:01;15.80;99.90
34279;DHT22;20538;51.528;9.942;2022-10-15T21:31:27;15.80;99.90
34279;DHT22;20538;51.528;9.942;2022-10-15T21:33:54;15.80;99.90
34279;DHT22;20538;51.528;9.942;2022-10-15T21:36:27;15.80;99.90
34279;DHT22;20538;51.528;9.942;2022-10-15T21:38:58;15.80;99.90
34279;DHT22;20538;51.528;9.942;2022-10-15T21:41:26;15.80;99.90
34279;DHT22;20538;51.528;9.942;2022-10-15T21:43:52;15.80;99.90
34279;DHT22;20538;51.528;9.942;2022-10-15T21:46:18;15.70;99.90
34279;DHT22;20538;51.528;9.942;2022-10-15T21:48:45;15.70;99.90
34279;DHT22;20538;51.528;9.942;2022-10-15T21:51:16;15.70;99.90
34279;DHT22;20538;51.528;9.942;2022-10-15T21:53:42;15.70;99.90
34279;DHT22;20538;51.528;9.942;2022-10-15T21:56:08;15.70;99.90
34279;DHT22;20538;51.528;9.942;2022-10-15T21:58:35;15.70;99.90
34279;DHT22;20538;51.528;9.942;2022-10-15T22:01:14;15.70;99.90
34279;DHT22;20538;51.528;9.942;2022-10-15T22:03:40;15.70;99.90
34279;DHT22;20538;51.528;9.942;2022-10-15T22:06:07;15.60;99.90
34279;DHT22;20538;51.528;9.942;2022-10-15T22:08:34;15.60;99.90
34279;DHT22;20538;51.528;9.942;2022-10-15T22:11:12;15.60;99.90
34279;DHT22;20538;51.528;9.942;2022-10-15T22:13:39;15.60;99.90
34279;DHT22;20538;51.528;9.942;2022-10-15T22:16:05;15.60;99.90
34279;DHT22;20538;51.528;9.942;2022-10-15T22:18:31;15.50;99.90
34279;DHT22;20538;51.528;9.942;2022-10-15T22:20:56;15.40;99.90
34279;DHT22;20538;51.528;9.942;2022-10-15T22:23:22;15.40;99.90
34279;DHT22;20538;51.528;9.942;2022-10-15T22:25:58;15.40;99.90
34279;DHT22;20538;51.528;9.942;2022-10-15T22:28:23;15.40;99.90
34279;DHT22;20538;51.528;9.942;2022-10-15T22:30:49;15.40;99.90
34279;DHT22;20538;51.528;9.942;2022-10-15T22:33:15;15.40;99.90
34279;DHT22;20538;51.528;9.942;2022-10-15T22:35:40;15.30;99.90
34279;DHT22;20538;51.528;9.942;2022-10-15T22:38:06;15.40;99.90